Hlavní strana
METAR-TAF:

METAR-TAF

Letiště :

Dayton, Ohio, Spojené státy americké

zeměpisná šířka: 39-35-20N, zeměpisná délka: 084-13-29W, výška: 292 m

Aktuální stav počasí

Zpráva byla vytvořena před 27 minutami, v 21:53 UTC
Severoseverovýchodní vítr 15 kt s nárazy do 25 kt
Teplota 8°C
Vlhkost vzduchu 61%
Tlak 1019 hPa
Viditelnost: 16.1 km
Jasno

METAR: KMGY 252153Z AUTO 02015G25KT 10SM CLR 08/01 A3008 RMK AO2 SLP190 T00830006

Čas: 18:20 (22:20 UTC)


TAF: chybějící

Stav a předpovědi počasí z více než 4 000 letišť (zprávy METAR a TAF).

Červené a žluté tečky na mapě představují dostupné meteorologické stanice.

Když kurzor umístíte na tečku, zobrazí se název stanice.

Pak kliknutím zobrazíte stav a předpověď počasí.

Chcete-li změnit mapu, kliknutím na zelené tlačítko se znaménkem +mapu přiblížíte, kliknutím na zelené tlačítko se znaménkem – mapu oddálíte a kliknutím na zelené šipky přejdete na sousední mapy.


METAR-TAF: